createdAt,value
2023-03-12T00:01:30.916Z,71.10
2023-03-12T00:03:58.083Z,71.10
2023-03-12T00:06:25.272Z,71.00
2023-03-12T00:08:53.920Z,70.90
2023-03-12T00:11:25.492Z,70.40
2023-03-12T00:13:54.522Z,70.00
2023-03-12T00:16:24.562Z,69.90
2023-03-12T00:18:53.325Z,69.80
2023-03-12T00:21:21.992Z,69.90
2023-03-12T00:23:50.084Z,70.00
2023-03-12T00:26:18.352Z,70.10
2023-03-12T00:28:45.404Z,70.20
2023-03-12T00:31:20.319Z,70.40
2023-03-12T00:33:49.984Z,70.40
2023-03-12T00:36:18.739Z,70.40
2023-03-12T00:38:45.935Z,70.40
2023-03-12T00:41:13.076Z,70.00
2023-03-12T00:43:40.027Z,69.40
2023-03-12T00:46:07.307Z,68.90
2023-03-12T00:48:34.229Z,68.60
2023-03-12T00:51:01.225Z,68.60
2023-03-12T00:53:28.160Z,68.60
2023-03-12T00:55:55.066Z,68.50
2023-03-12T00:58:22.014Z,68.50
2023-03-12T01:00:49.084Z,68.40
2023-03-12T01:03:16.300Z,68.50
2023-03-12T01:05:43.329Z,68.50
2023-03-12T01:08:11.325Z,68.50
2023-03-12T01:10:42.576Z,68.60
2023-03-12T01:13:09.568Z,68.70
2023-03-12T01:15:36.720Z,68.20
2023-03-12T01:18:03.797Z,67.90
2023-03-12T01:20:30.732Z,68.20
2023-03-12T01:22:57.647Z,68.30
2023-03-12T01:25:24.588Z,68.40
2023-03-12T01:27:52.035Z,68.60
2023-03-12T01:30:19.077Z,68.70
2023-03-12T01:32:46.199Z,68.40
2023-03-12T01:35:13.377Z,67.90
2023-03-12T01:37:40.609Z,67.60
2023-03-12T01:40:07.975Z,67.30
2023-03-12T01:42:34.863Z,66.80
2023-03-12T01:45:03.503Z,66.40
2023-03-12T01:47:32.271Z,65.60
2023-03-12T01:50:03.157Z,64.90
2023-03-12T01:52:35.575Z,65.00
2023-03-12T01:55:05.736Z,65.10
2023-03-12T01:57:48.560Z,64.90
2023-03-12T02:00:20.096Z,63.70
2023-03-12T02:02:49.748Z,63.10
2023-03-12T02:05:24.093Z,62.00
2023-03-12T02:07:51.467Z,61.70
2023-03-12T02:10:18.516Z,61.90
2023-03-12T02:12:45.668Z,62.40
2023-03-12T02:15:12.818Z,63.20
2023-03-12T02:17:40.606Z,63.50
2023-03-12T02:20:17.139Z,63.10
2023-03-12T02:22:49.633Z,61.50
2023-03-12T02:25:36.027Z,61.10
2023-03-12T02:28:07.382Z,60.20
2023-03-12T02:30:36.681Z,59.90
2023-03-12T02:33:07.672Z,59.20
2023-03-12T02:35:35.225Z,58.90
2023-03-12T02:38:22.806Z,58.80
2023-03-12T02:40:51.331Z,57.90
2023-03-12T02:43:21.660Z,57.70
2023-03-12T02:45:49.405Z,57.80
2023-03-12T02:48:16.329Z,57.60
2023-03-12T02:50:44.196Z,57.70
2023-03-12T02:53:11.119Z,57.60
2023-03-12T02:55:38.135Z,57.50
2023-03-12T02:58:05.021Z,57.50
2023-03-12T03:00:32.311Z,57.70
2023-03-12T03:03:00.977Z,57.90
2023-03-12T03:05:28.008Z,58.00
2023-03-12T03:07:55.863Z,58.30
2023-03-12T03:10:22.860Z,58.70
2023-03-12T03:12:50.189Z,58.90
2023-03-12T03:15:17.657Z,59.20
2023-03-12T03:17:45.215Z,59.40
2023-03-12T03:20:12.474Z,59.60
2023-03-12T03:22:39.527Z,59.80
2023-03-12T03:25:07.772Z,59.90
2023-03-12T03:27:34.937Z,60.00
2023-03-12T03:30:02.344Z,60.20
2023-03-12T03:32:31.827Z,60.30
2023-03-12T03:34:58.932Z,60.80
2023-03-12T03:37:25.915Z,60.90
2023-03-12T03:39:52.876Z,60.90
2023-03-12T03:42:19.945Z,61.00
2023-03-12T03:44:46.868Z,61.00
2023-03-12T03:47:14.293Z,61.20
2023-03-12T03:49:41.348Z,61.10
2023-03-12T03:52:08.489Z,61.10
2023-03-12T03:54:36.558Z,61.20
2023-03-12T03:57:05.555Z,61.40
2023-03-12T03:59:32.601Z,61.50
2023-03-12T04:01:59.703Z,61.50
2023-03-12T04:04:26.642Z,61.70
2023-03-12T04:06:54.156Z,61.80
2023-03-12T04:09:22.018Z,61.90
2023-03-12T04:11:49.017Z,61.80
2023-03-12T04:14:20.773Z,61.70
2023-03-12T04:16:47.745Z,61.80
2023-03-12T04:19:14.752Z,61.70
2023-03-12T04:21:41.822Z,61.60
2023-03-12T04:24:14.769Z,61.60
2023-03-12T04:26:41.892Z,61.40
2023-03-12T04:29:08.937Z,61.40
2023-03-12T04:31:36.406Z,61.10
2023-03-12T04:34:03.581Z,61.00
2023-03-12T04:36:30.996Z,60.90
2023-03-12T04:38:59.142Z,61.00
2023-03-12T04:41:30.802Z,61.30
2023-03-12T04:44:04.415Z,61.60
2023-03-12T04:46:33.276Z,61.80
2023-03-12T04:49:02.667Z,61.90
2023-03-12T04:51:31.763Z,62.20
2023-03-12T04:53:59.581Z,62.40
2023-03-12T04:56:27.209Z,62.50
2023-03-12T04:58:54.330Z,62.70
2023-03-12T05:01:28.291Z,63.00
2023-03-12T05:03:55.579Z,63.80
2023-03-12T05:06:24.184Z,64.30
2023-03-12T05:08:51.919Z,65.00
2023-03-12T05:11:19.658Z,65.60
2023-03-12T05:13:47.062Z,66.00
2023-03-12T05:16:15.427Z,66.20
2023-03-12T05:18:43.676Z,66.50
2023-03-12T05:21:18.258Z,67.00
2023-03-12T05:23:46.652Z,66.90
2023-03-12T05:26:28.029Z,66.70
2023-03-12T05:29:03.666Z,67.00
2023-03-12T05:31:33.230Z,67.90
2023-03-12T05:34:01.675Z,67.40
2023-03-12T05:36:28.966Z,67.60
2023-03-12T05:38:56.300Z,67.80
2023-03-12T05:41:28.086Z,67.90
2023-03-12T05:43:59.324Z,68.20
2023-03-12T05:46:28.593Z,68.30
2023-03-12T05:48:55.873Z,68.40
2023-03-12T05:51:23.405Z,68.60
2023-03-12T05:53:50.570Z,68.70
2023-03-12T05:56:18.297Z,68.90
2023-03-12T05:58:48.107Z,69.00
2023-03-12T06:01:18.306Z,69.30
2023-03-12T06:03:45.873Z,69.50
2023-03-12T06:06:12.937Z,69.70
2023-03-12T06:08:41.610Z,69.80
2023-03-12T06:11:10.166Z,70.00
2023-03-12T06:13:37.189Z,70.00
2023-03-12T06:16:10.992Z,70.00
2023-03-12T06:18:38.477Z,70.90
2023-03-12T06:21:12.582Z,70.10
2023-03-12T06:23:40.943Z,69.20
2023-03-12T06:26:11.165Z,67.40
2023-03-12T06:28:38.525Z,66.10
2023-03-12T06:31:05.818Z,65.30
2023-03-12T06:33:34.200Z,64.80
2023-03-12T06:36:03.407Z,64.40
2023-03-12T06:38:30.326Z,64.30
2023-03-12T06:41:02.208Z,64.00
2023-03-12T06:43:31.147Z,63.30
2023-03-12T06:46:00.144Z,62.40
2023-03-12T06:48:28.474Z,61.40
2023-03-12T06:50:55.513Z,60.60
2023-03-12T06:53:23.217Z,59.30
2023-03-12T06:55:51.237Z,57.60
2023-03-12T06:58:18.852Z,55.00
2023-03-12T07:00:45.709Z,52.70
2023-03-12T07:03:13.424Z,50.50
2023-03-12T07:05:43.289Z,47.90
2023-03-12T07:08:10.403Z,46.10
2023-03-12T07:10:37.248Z,44.60
2023-03-12T07:13:04.270Z,43.10
2023-03-12T07:15:31.143Z,41.70
2023-03-12T07:18:01.707Z,40.10
2023-03-12T07:20:28.551Z,39.00
2023-03-12T07:22:55.368Z,38.80
2023-03-12T07:25:22.322Z,38.30
2023-03-12T07:27:49.147Z,37.80
2023-03-12T07:30:16.052Z,38.00
2023-03-12T07:32:43.017Z,37.80
2023-03-12T07:35:10.096Z,37.10
2023-03-12T07:37:36.954Z,37.60
2023-03-12T07:40:07.347Z,37.30
2023-03-12T07:42:34.441Z,37.60
2023-03-12T07:45:01.449Z,37.80
2023-03-12T07:47:28.456Z,37.90
2023-03-12T07:49:55.352Z,38.00
2023-03-12T07:52:23.647Z,39.10
2023-03-12T07:54:52.758Z,39.30
2023-03-12T07:57:19.947Z,40.60
2023-03-12T07:59:48.230Z,41.70
2023-03-12T08:02:15.192Z,42.10
2023-03-12T08:04:42.144Z,41.80
2023-03-12T08:07:09.481Z,42.40
2023-03-12T08:09:38.673Z,42.30
2023-03-12T08:12:08.612Z,41.90
2023-03-12T08:14:35.838Z,40.30
2023-03-12T08:17:02.805Z,40.00
2023-03-12T08:19:29.601Z,39.00
2023-03-12T08:21:58.012Z,37.70
2023-03-12T08:24:24.826Z,37.60
2023-03-12T08:26:51.612Z,36.30
2023-03-12T08:29:18.445Z,34.80
2023-03-12T08:32:01.614Z,33.50
2023-03-12T08:34:30.802Z,32.30
2023-03-12T08:36:57.730Z,32.50
2023-03-12T08:39:24.579Z,31.90
2023-03-12T08:41:55.305Z,31.40
2023-03-12T08:44:22.825Z,30.00
2023-03-12T08:46:49.736Z,29.50
2023-03-12T08:49:16.782Z,29.30
2023-03-12T08:51:43.647Z,28.80
2023-03-12T08:54:10.483Z,28.80
2023-03-12T08:56:41.851Z,29.00
2023-03-12T08:59:09.345Z,29.50
2023-03-12T09:01:36.160Z,29.50
2023-03-12T09:04:03.818Z,28.60
2023-03-12T09:06:30.811Z,28.90
2023-03-12T09:08:57.764Z,28.90
2023-03-12T09:11:24.647Z,28.70
2023-03-12T09:14:15.250Z,28.00
2023-03-12T09:16:38.324Z,28.10
2023-03-12T09:19:05.265Z,28.00
2023-03-12T09:21:32.121Z,28.10
2023-03-12T09:23:58.983Z,28.10
2023-03-12T09:26:25.865Z,28.10
2023-03-12T09:28:52.712Z,28.00
2023-03-12T09:31:20.795Z,27.50
2023-03-12T09:33:47.658Z,27.40
2023-03-12T09:36:14.474Z,27.70
2023-03-12T09:38:41.372Z,27.60
2023-03-12T09:41:16.912Z,27.00
2023-03-12T09:43:47.706Z,27.10
2023-03-12T09:46:21.206Z,26.70
2023-03-12T09:48:48.173Z,26.90
2023-03-12T09:51:24.245Z,27.30
2023-03-12T09:53:56.177Z,27.40
2023-03-12T09:56:23.679Z,26.70
2023-03-12T09:58:54.544Z,25.90
2023-03-12T10:01:27.480Z,25.80
2023-03-12T10:04:09.479Z,25.30
2023-03-12T10:06:49.225Z,25.30
2023-03-12T10:09:25.087Z,25.30
2023-03-12T10:11:57.736Z,25.20
2023-03-12T10:14:42.771Z,25.30
2023-03-12T10:17:21.170Z,25.60
2023-03-12T10:20:02.659Z,26.00
2023-03-12T10:22:32.248Z,25.80
2023-03-12T10:25:05.930Z,25.30
2023-03-12T10:27:35.689Z,25.40
2023-03-12T10:30:03.788Z,25.20
2023-03-12T10:32:39.032Z,24.90
2023-03-12T10:35:16.721Z,24.60
2023-03-12T10:38:02.754Z,24.90
2023-03-12T10:40:31.490Z,24.60
2023-03-12T10:42:58.345Z,24.70
2023-03-12T10:45:35.355Z,24.80
2023-03-12T10:48:03.548Z,24.20
2023-03-12T10:50:32.275Z,24.80
2023-03-12T10:53:17.697Z,24.90
2023-03-12T10:55:57.267Z,25.00
2023-03-12T10:58:25.240Z,24.60
2023-03-12T11:00:59.901Z,24.30
2023-03-12T11:03:27.229Z,24.60
2023-03-12T11:05:55.461Z,24.40
2023-03-12T11:08:33.424Z,24.40
2023-03-12T11:11:01.339Z,24.50
2023-03-12T11:13:38.731Z,24.50
2023-03-12T11:16:17.812Z,24.40
2023-03-12T11:18:59.917Z,24.40
2023-03-12T11:21:27.133Z,24.30
2023-03-12T11:23:57.000Z,24.40
2023-03-12T11:26:25.552Z,24.40
2023-03-12T11:28:55.425Z,24.30
2023-03-12T11:31:26.016Z,24.30
2023-03-12T11:33:56.143Z,24.30
2023-03-12T11:36:26.000Z,24.30
2023-03-12T11:39:10.348Z,24.50
2023-03-12T11:41:37.139Z,24.30
2023-03-12T11:44:11.857Z,24.50
2023-03-12T11:47:04.796Z,24.30
2023-03-12T11:49:37.935Z,24.20
2023-03-12T11:52:28.463Z,24.30
2023-03-12T11:55:16.325Z,25.00
2023-03-12T11:57:58.565Z,25.70
2023-03-12T12:00:27.644Z,25.40
2023-03-12T12:03:13.295Z,25.10
2023-03-12T12:05:49.244Z,24.50
2023-03-12T12:08:28.250Z,24.20
2023-03-12T12:11:15.328Z,23.90
2023-03-12T12:13:57.419Z,23.60
2023-03-12T12:16:30.104Z,23.30
2023-03-12T12:19:15.410Z,23.50
2023-03-12T12:21:57.262Z,23.40
2023-03-12T12:24:35.057Z,23.70
2023-03-12T12:27:05.719Z,24.10
2023-03-12T12:29:36.230Z,23.10
2023-03-12T12:32:05.658Z,23.60
2023-03-12T12:34:32.503Z,24.40
2023-03-12T12:37:17.865Z,24.80
2023-03-12T12:40:08.709Z,25.20
2023-03-12T12:42:41.386Z,25.90
2023-03-12T12:45:12.571Z,26.00
2023-03-12T12:47:45.155Z,25.70
2023-03-12T12:50:17.454Z,25.10
2023-03-12T12:52:45.001Z,24.70
2023-03-12T12:55:11.765Z,25.20
2023-03-12T12:57:44.693Z,25.50
2023-03-12T13:00:20.432Z,25.60
2023-03-12T13:02:48.062Z,25.40
2023-03-12T13:05:41.188Z,25.80
2023-03-12T13:08:10.946Z,25.90
2023-03-12T13:10:48.481Z,26.50
2023-03-12T13:13:26.239Z,26.30
2023-03-12T13:16:14.049Z,26.20
2023-03-12T13:18:40.949Z,26.20
2023-03-12T13:21:24.292Z,26.80
2023-03-12T13:24:00.478Z,27.30
2023-03-12T13:26:37.943Z,27.50
2023-03-12T13:29:23.588Z,27.50
2023-03-12T13:31:50.468Z,27.20
2023-03-12T13:34:17.287Z,27.20
2023-03-12T13:36:45.085Z,27.30
2023-03-12T13:39:15.023Z,27.40
2023-03-12T13:41:44.546Z,27.10
2023-03-12T13:44:29.499Z,27.30
2023-03-12T13:47:11.662Z,27.60
2023-03-12T13:49:43.553Z,27.20
2023-03-12T13:52:16.609Z,27.70
2023-03-12T13:54:45.698Z,27.80
2023-03-12T13:57:24.761Z,27.90
2023-03-12T13:59:52.358Z,27.70
2023-03-12T14:02:30.982Z,27.90
2023-03-12T14:05:09.673Z,27.90
2023-03-12T14:07:36.682Z,27.90
2023-03-12T14:10:09.371Z,28.20
2023-03-12T14:12:48.412Z,28.60
2023-03-12T14:15:19.402Z,29.20
2023-03-12T14:17:46.528Z,28.80
2023-03-12T14:20:21.447Z,28.70
2023-03-12T14:22:52.945Z,28.60
2023-03-12T14:25:31.748Z,28.90
2023-03-12T14:27:58.859Z,28.80
2023-03-12T14:30:30.875Z,29.20
2023-03-12T14:33:01.271Z,29.60
2023-03-12T14:35:33.371Z,29.90
2023-03-12T14:38:07.319Z,29.90
2023-03-12T14:40:46.246Z,29.70
2023-03-12T14:43:27.065Z,30.00
2023-03-12T14:45:55.015Z,30.40
2023-03-12T14:48:22.972Z,30.60
2023-03-12T14:50:50.004Z,30.80
2023-03-12T14:53:23.749Z,31.00
2023-03-12T14:56:00.135Z,31.50
2023-03-12T14:58:27.093Z,31.80
2023-03-12T15:00:58.780Z,32.00
2023-03-12T15:03:27.315Z,31.90
2023-03-12T15:05:54.152Z,32.10
2023-03-12T15:08:21.377Z,32.70
2023-03-12T15:10:50.124Z,33.00
2023-03-12T15:13:17.692Z,33.20
2023-03-12T15:15:46.889Z,33.60
2023-03-12T15:18:16.156Z,34.20
2023-03-12T15:20:43.411Z,34.40
2023-03-12T15:23:12.077Z,34.40
2023-03-12T15:25:39.310Z,34.50
2023-03-12T15:28:15.399Z,35.40
2023-03-12T15:30:42.658Z,36.30
2023-03-12T15:33:09.601Z,36.90
2023-03-12T15:35:41.512Z,36.90
2023-03-12T15:38:15.622Z,37.00
2023-03-12T15:40:47.901Z,37.40
2023-03-12T15:43:17.753Z,37.60
2023-03-12T15:45:44.980Z,37.80
2023-03-12T15:48:16.203Z,38.20
2023-03-12T15:50:43.708Z,38.70
2023-03-12T15:53:13.516Z,39.00
2023-03-12T15:55:41.896Z,39.30
2023-03-12T15:58:27.569Z,40.10
2023-03-12T16:00:55.158Z,40.70
2023-03-12T16:03:22.531Z,41.70
2023-03-12T16:05:50.373Z,42.60
2023-03-12T16:08:23.945Z,44.20
2023-03-12T16:10:50.784Z,44.60
2023-03-12T16:13:21.306Z,45.60
2023-03-12T16:15:48.590Z,46.20
2023-03-12T16:18:16.836Z,47.00
2023-03-12T16:20:44.378Z,47.50
2023-03-12T16:23:11.387Z,48.20
2023-03-12T16:25:38.673Z,48.70
2023-03-12T16:28:06.177Z,49.00
2023-03-12T16:30:34.460Z,49.70
2023-03-12T16:33:02.154Z,49.80
2023-03-12T16:35:31.281Z,50.10
2023-03-12T16:38:01.323Z,50.20
2023-03-12T16:40:33.707Z,50.60
2023-03-12T16:43:03.835Z,51.10
2023-03-12T16:45:34.001Z,51.90
2023-03-12T16:48:02.088Z,51.70
2023-03-12T16:50:29.189Z,52.00
2023-03-12T16:52:56.573Z,52.10
2023-03-12T16:55:25.265Z,52.10
2023-03-12T16:58:00.275Z,52.30
2023-03-12T17:00:28.450Z,52.40
2023-03-12T17:02:57.882Z,52.70
2023-03-12T17:05:25.736Z,52.90
2023-03-12T17:07:52.534Z,53.20
2023-03-12T17:10:19.455Z,53.20
2023-03-12T17:12:48.362Z,53.70
2023-03-12T17:15:22.665Z,54.10
2023-03-12T17:17:50.195Z,54.40
2023-03-12T17:20:18.319Z,54.70
2023-03-12T17:22:45.433Z,55.00
2023-03-12T17:25:20.432Z,55.20
2023-03-12T17:27:47.455Z,55.50
2023-03-12T17:30:14.656Z,55.80
2023-03-12T17:32:41.614Z,56.20
2023-03-12T17:35:08.894Z,56.40
2023-03-12T17:37:36.048Z,56.60
2023-03-12T17:40:09.249Z,56.80
2023-03-12T17:42:37.303Z,57.10
2023-03-12T17:45:05.750Z,57.30
2023-03-12T17:47:32.824Z,57.50
2023-03-12T17:49:59.712Z,57.70
2023-03-12T17:52:26.645Z,58.00
2023-03-12T17:54:53.664Z,58.20
2023-03-12T17:57:20.547Z,58.60
2023-03-12T17:59:47.461Z,58.80
2023-03-12T18:02:14.614Z,59.00
2023-03-12T18:04:41.601Z,59.10
2023-03-12T18:07:09.089Z,59.20
2023-03-12T18:09:36.382Z,59.20
2023-03-12T18:12:03.568Z,59.40
2023-03-12T18:14:30.500Z,59.50
2023-03-12T18:16:59.153Z,59.60
2023-03-12T18:19:27.258Z,59.90
2023-03-12T18:21:54.162Z,60.10
2023-03-12T18:24:21.053Z,60.50
2023-03-12T18:26:50.506Z,60.80
2023-03-12T18:29:17.643Z,61.00
2023-03-12T18:31:44.725Z,61.10
2023-03-12T18:34:11.750Z,61.50
2023-03-12T18:36:38.732Z,61.60
2023-03-12T18:39:06.572Z,61.80
2023-03-12T18:41:33.705Z,61.90
2023-03-12T18:44:00.804Z,62.10
2023-03-12T18:46:28.330Z,62.30
2023-03-12T18:48:55.260Z,62.30
2023-03-12T18:51:22.261Z,62.10
2023-03-12T18:53:49.268Z,61.90
2023-03-12T18:56:16.250Z,61.70
2023-03-12T18:58:43.169Z,61.60
2023-03-12T19:01:10.809Z,61.50
2023-03-12T19:03:37.809Z,61.50
2023-03-12T19:06:12.901Z,61.40
2023-03-12T19:08:40.699Z,61.50
2023-03-12T19:11:13.691Z,61.30
2023-03-12T19:13:41.529Z,61.40
2023-03-12T19:16:10.511Z,61.50
2023-03-12T19:18:38.840Z,62.30
2023-03-12T19:21:07.802Z,61.60
2023-03-12T19:23:35.653Z,61.70
2023-03-12T19:26:03.152Z,61.80
2023-03-12T19:28:31.194Z,61.90
2023-03-12T19:31:02.466Z,62.00
2023-03-12T19:33:30.105Z,62.20
2023-03-12T19:35:57.556Z,62.30
2023-03-12T19:38:24.716Z,62.30
2023-03-12T19:40:56.361Z,62.50
2023-03-12T19:43:23.776Z,62.60
2023-03-12T19:45:52.307Z,62.60
2023-03-12T19:48:19.255Z,62.70
2023-03-12T19:50:46.242Z,62.70
2023-03-12T19:53:13.475Z,62.70
2023-03-12T19:55:40.487Z,62.80
2023-03-12T19:58:08.395Z,62.90
2023-03-12T20:00:35.398Z,62.80
2023-03-12T20:03:02.550Z,62.90
2023-03-12T20:05:29.715Z,63.10
2023-03-12T20:07:56.638Z,63.10
2023-03-12T20:10:23.805Z,63.10
2023-03-12T20:12:50.730Z,63.10
2023-03-12T20:15:18.328Z,63.20
2023-03-12T20:17:45.345Z,63.20
2023-03-12T20:20:12.486Z,63.20
2023-03-12T20:22:39.539Z,63.20
2023-03-12T20:25:07.123Z,63.30
2023-03-12T20:27:34.372Z,63.60
2023-03-12T20:30:03.523Z,63.70
2023-03-12T20:32:30.862Z,63.80
2023-03-12T20:34:57.849Z,64.00
2023-03-12T20:37:24.798Z,64.00
2023-03-12T20:39:52.574Z,64.10
2023-03-12T20:42:19.425Z,64.20
2023-03-12T20:44:46.402Z,64.40
2023-03-12T20:47:13.315Z,64.50
2023-03-12T20:49:40.262Z,64.50
2023-03-12T20:52:07.260Z,64.50
2023-03-12T20:54:34.166Z,64.60
2023-03-12T20:57:01.118Z,64.70
2023-03-12T20:59:28.019Z,64.80
2023-03-12T21:01:55.345Z,65.00
2023-03-12T21:04:22.286Z,65.00
2023-03-12T21:06:51.706Z,65.30
2023-03-12T21:09:18.794Z,65.40
2023-03-12T21:11:45.726Z,65.50
2023-03-12T21:14:12.675Z,65.70
2023-03-12T21:16:39.635Z,65.80
2023-03-12T21:19:06.700Z,65.80
2023-03-12T21:21:36.287Z,65.90
2023-03-12T21:24:03.347Z,65.90
2023-03-12T21:26:30.327Z,65.80
2023-03-12T21:28:57.241Z,65.90
2023-03-12T21:31:26.644Z,65.90
2023-03-12T21:33:59.246Z,65.90
2023-03-12T21:36:26.505Z,66.10
2023-03-12T21:38:53.425Z,66.10
2023-03-12T21:41:21.437Z,66.10
2023-03-12T21:43:48.593Z,66.00
2023-03-12T21:46:18.828Z,66.10
2023-03-12T21:48:47.798Z,66.20
2023-03-12T21:51:16.472Z,66.30
2023-03-12T21:53:44.513Z,66.20
2023-03-12T21:56:12.086Z,66.40
2023-03-12T21:58:39.126Z,66.40
2023-03-12T22:01:15.357Z,66.40
2023-03-12T22:03:44.599Z,66.50
2023-03-12T22:06:12.703Z,66.50
2023-03-12T22:08:40.210Z,66.70
2023-03-12T22:11:08.316Z,66.70
2023-03-12T22:13:35.757Z,66.80
2023-03-12T22:16:06.809Z,66.80
2023-03-12T22:18:37.122Z,67.00
2023-03-12T22:21:05.368Z,67.00
2023-03-12T22:23:33.565Z,67.20
2023-03-12T22:26:07.440Z,67.30
2023-03-12T22:28:34.426Z,67.50
2023-03-12T22:31:04.348Z,67.30
2023-03-12T22:33:31.627Z,67.30
2023-03-12T22:35:58.986Z,67.50
2023-03-12T22:38:26.052Z,67.60
2023-03-12T22:40:55.502Z,67.80
2023-03-12T22:43:24.826Z,67.90
2023-03-12T22:45:55.055Z,68.90
2023-03-12T22:48:21.994Z,68.20
2023-03-12T22:50:55.370Z,68.20
2023-03-12T22:53:22.966Z,68.30
2023-03-12T22:55:59.977Z,68.40
2023-03-12T22:58:27.692Z,68.70
2023-03-12T23:01:02.927Z,68.70
2023-03-12T23:03:31.232Z,68.80
2023-03-12T23:05:58.906Z,68.90
2023-03-12T23:08:26.735Z,68.90
2023-03-12T23:10:56.733Z,69.10
2023-03-12T23:13:25.068Z,69.20
2023-03-12T23:15:52.073Z,69.20
2023-03-12T23:18:19.798Z,69.20
2023-03-12T23:20:47.104Z,69.30
2023-03-12T23:23:16.756Z,69.40
2023-03-12T23:25:53.166Z,69.50
2023-03-12T23:28:20.181Z,69.70
2023-03-12T23:31:02.203Z,69.50
2023-03-12T23:33:30.018Z,69.70
2023-03-12T23:36:00.360Z,69.70
2023-03-12T23:38:28.587Z,69.90
2023-03-12T23:41:13.886Z,70.70
2023-03-12T23:43:41.022Z,70.10
2023-03-12T23:46:09.606Z,70.00
2023-03-12T23:48:37.948Z,70.20
2023-03-12T23:51:05.091Z,70.30
2023-03-12T23:53:32.800Z,70.30
2023-03-12T23:56:01.619Z,70.40
2023-03-12T23:58:29.213Z,70.40
